sensor_id;sensor_type;location;lat;lon;timestamp;pressure;altitude;pressure_sealevel;temperature;humidity
48630;BME280;34426;52.180;4.462;2023-03-19T00:01:16;101078.03;;;11.16;91.63
48630;BME280;34426;52.180;4.462;2023-03-19T00:03:44;101088.06;;;11.12;91.75
48630;BME280;34426;52.180;4.462;2023-03-19T00:06:12;101083.91;;;11.14;91.43
48630;BME280;34426;52.180;4.462;2023-03-19T00:08:40;101089.56;;;11.19;91.58
48630;BME280;34426;52.180;4.462;2023-03-19T00:11:08;101092.31;;;11.14;91.36
48630;BME280;34426;52.180;4.462;2023-03-19T00:13:35;101086.97;;;11.13;91.49
48630;BME280;34426;52.180;4.462;2023-03-19T00:16:03;101107.34;;;11.08;91.48
48630;BME280;34426;52.180;4.462;2023-03-19T00:18:33;101096.44;;;11.07;92.04
48630;BME280;34426;52.180;4.462;2023-03-19T00:21:00;101102.88;;;11.07;91.48
48630;BME280;34426;52.180;4.462;2023-03-19T00:23:30;101096.16;;;11.08;91.80
48630;BME280;34426;52.180;4.462;2023-03-19T00:25:58;101097.59;;;11.11;91.18
48630;BME280;34426;52.180;4.462;2023-03-19T00:28:26;101100.13;;;11.12;90.72
48630;BME280;34426;52.180;4.462;2023-03-19T00:30:54;101102.88;;;11.07;90.79
48630;BME280;34426;52.180;4.462;2023-03-19T00:33:22;101109.00;;;11.04;90.80
48630;BME280;34426;52.180;4.462;2023-03-19T00:35:51;101107.63;;;11.07;90.52
48630;BME280;34426;52.180;4.462;2023-03-19T00:38:19;101115.19;;;11.06;90.12
48630;BME280;34426;52.180;4.462;2023-03-19T00:40:46;101117.88;;;10.96;90.11
48630;BME280;34426;52.180;4.462;2023-03-19T00:43:17;101113.91;;;10.92;90.27
48630;BME280;34426;52.180;4.462;2023-03-19T00:45:44;101117.22;;;10.89;90.60
48630;BME280;34426;52.180;4.462;2023-03-19T00:48:14;101118.91;;;10.90;90.78
48630;BME280;34426;52.180;4.462;2023-03-19T00:50:42;101114.38;;;10.84;90.94
48630;BME280;34426;52.180;4.462;2023-03-19T00:53:14;101125.03;;;10.87;90.27
48630;BME280;34426;52.180;4.462;2023-03-19T00:55:42;101128.94;;;10.86;90.64
48630;BME280;34426;52.180;4.462;2023-03-19T00:58:10;101119.69;;;10.80;91.13
48630;BME280;34426;52.180;4.462;2023-03-19T01:00:37;101122.94;;;10.72;91.04
48630;BME280;34426;52.180;4.462;2023-03-19T01:03:22;101118.72;;;10.70;90.64
48630;BME280;34426;52.180;4.462;2023-03-19T01:05:53;101119.81;;;10.69;90.75
48630;BME280;34426;52.180;4.462;2023-03-19T01:08:24;101119.94;;;10.79;89.55
48630;BME280;34426;52.180;4.462;2023-03-19T01:10:52;101121.00;;;10.73;89.20
48630;BME280;34426;52.180;4.462;2023-03-19T01:13:20;101118.13;;;10.68;89.15
48630;BME280;34426;52.180;4.462;2023-03-19T01:16:00;101118.59;;;10.59;88.24
48630;BME280;34426;52.180;4.462;2023-03-19T01:18:28;101126.41;;;10.57;88.11
48630;BME280;34426;52.180;4.462;2023-03-19T01:20:58;101125.50;;;10.52;88.11
48630;BME280;34426;52.180;4.462;2023-03-19T01:23:31;101133.22;;;10.45;87.93
48630;BME280;34426;52.180;4.462;2023-03-19T01:25:58;101131.22;;;10.40;87.85
48630;BME280;34426;52.180;4.462;2023-03-19T01:28:30;101129.41;;;10.29;88.76
48630;BME280;34426;52.180;4.462;2023-03-19T01:30:59;101125.59;;;10.18;88.00
48630;BME280;34426;52.180;4.462;2023-03-19T01:33:30;101127.91;;;10.05;88.09
48630;BME280;34426;52.180;4.462;2023-03-19T01:35:58;101136.19;;;9.94;88.59
48630;BME280;34426;52.180;4.462;2023-03-19T01:38:29;101124.91;;;9.89;88.24
48630;BME280;34426;52.180;4.462;2023-03-19T01:40:58;101126.53;;;9.85;88.48
48630;BME280;34426;52.180;4.462;2023-03-19T01:43:26;101136.63;;;9.70;88.88
48630;BME280;34426;52.180;4.462;2023-03-19T01:45:57;101141.03;;;9.65;88.65
48630;BME280;34426;52.180;4.462;2023-03-19T01:48:31;101141.88;;;9.66;88.32
48630;BME280;34426;52.180;4.462;2023-03-19T01:51:02;101142.53;;;9.56;88.13
48630;BME280;34426;52.180;4.462;2023-03-19T01:53:32;101138.06;;;9.55;88.09
48630;BME280;34426;52.180;4.462;2023-03-19T01:56:05;101138.00;;;9.50;88.67
48630;BME280;34426;52.180;4.462;2023-03-19T01:58:35;101133.19;;;9.46;89.19
48630;BME280;34426;52.180;4.462;2023-03-19T02:01:03;101127.50;;;9.41;89.38
48630;BME280;34426;52.180;4.462;2023-03-19T02:03:31;101138.75;;;9.29;89.17
48630;BME280;34426;52.180;4.462;2023-03-19T02:05:59;101145.78;;;9.31;89.30
48630;BME280;34426;52.180;4.462;2023-03-19T02:08:27;101144.06;;;9.30;89.38
48630;BME280;34426;52.180;4.462;2023-03-19T02:10:56;101147.28;;;9.22;89.43
48630;BME280;34426;52.180;4.462;2023-03-19T02:13:26;101138.81;;;9.17;89.54
48630;BME280;34426;52.180;4.462;2023-03-19T02:15:54;101138.31;;;9.20;90.21
48630;BME280;34426;52.180;4.462;2023-03-19T02:18:23;101138.72;;;9.12;89.43
48630;BME280;34426;52.180;4.462;2023-03-19T02:20:55;101142.03;;;9.09;90.31
48630;BME280;34426;52.180;4.462;2023-03-19T02:23:32;101138.66;;;9.07;90.14
48630;BME280;34426;52.180;4.462;2023-03-19T02:26:07;101142.69;;;8.99;90.62
48630;BME280;34426;52.180;4.462;2023-03-19T02:28:37;101143.09;;;8.91;90.80
48630;BME280;34426;52.180;4.462;2023-03-19T02:31:06;101147.13;;;8.84;91.54
48630;BME280;34426;52.180;4.462;2023-03-19T02:33:34;101141.34;;;8.74;92.04
48630;BME280;34426;52.180;4.462;2023-03-19T02:36:02;101144.28;;;8.67;92.33
48630;BME280;34426;52.180;4.462;2023-03-19T02:38:32;101141.25;;;8.68;91.64
48630;BME280;34426;52.180;4.462;2023-03-19T02:41:02;101138.97;;;8.65;93.07
48630;BME280;34426;52.180;4.462;2023-03-19T02:43:32;101147.16;;;8.72;92.73
48630;BME280;34426;52.180;4.462;2023-03-19T02:46:00;101153.69;;;8.78;92.62
48630;BME280;34426;52.180;4.462;2023-03-19T02:48:28;101150.63;;;8.91;91.94
48630;BME280;34426;52.180;4.462;2023-03-19T02:50:56;101149.22;;;9.05;90.96
48630;BME280;34426;52.180;4.462;2023-03-19T02:53:23;101150.72;;;9.13;90.64
48630;BME280;34426;52.180;4.462;2023-03-19T02:55:51;101155.16;;;9.09;90.46
48630;BME280;34426;52.180;4.462;2023-03-19T02:58:18;101153.88;;;9.16;90.66
48630;BME280;34426;52.180;4.462;2023-03-19T03:00:48;101145.75;;;9.15;91.19
48630;BME280;34426;52.180;4.462;2023-03-19T03:03:15;101150.56;;;9.19;90.78
48630;BME280;34426;52.180;4.462;2023-03-19T03:05:43;101150.66;;;9.24;89.81
48630;BME280;34426;52.180;4.462;2023-03-19T03:08:10;101145.09;;;9.24;90.32
48630;BME280;34426;52.180;4.462;2023-03-19T03:10:37;101139.16;;;9.21;89.98
48630;BME280;34426;52.180;4.462;2023-03-19T03:13:04;101139.16;;;9.21;89.80
48630;BME280;34426;52.180;4.462;2023-03-19T03:15:32;101139.75;;;9.23;89.25
48630;BME280;34426;52.180;4.462;2023-03-19T03:18:01;101140.00;;;9.21;89.76
48630;BME280;34426;52.180;4.462;2023-03-19T03:20:29;101145.00;;;9.19;89.38
48630;BME280;34426;52.180;4.462;2023-03-19T03:22:56;101146.34;;;9.17;90.29
48630;BME280;34426;52.180;4.462;2023-03-19T03:25:23;101145.59;;;9.21;89.86
48630;BME280;34426;52.180;4.462;2023-03-19T03:27:51;101151.06;;;9.16;89.40
48630;BME280;34426;52.180;4.462;2023-03-19T03:30:18;101156.84;;;9.10;89.59
48630;BME280;34426;52.180;4.462;2023-03-19T03:32:46;101153.19;;;9.09;89.80
48630;BME280;34426;52.180;4.462;2023-03-19T03:35:15;101143.19;;;9.13;89.34
48630;BME280;34426;52.180;4.462;2023-03-19T03:37:42;101147.94;;;9.13;89.77
48630;BME280;34426;52.180;4.462;2023-03-19T03:40:10;101141.50;;;9.12;89.49
48630;BME280;34426;52.180;4.462;2023-03-19T03:42:38;101147.34;;;9.11;89.55
48630;BME280;34426;52.180;4.462;2023-03-19T03:45:06;101144.84;;;9.09;90.32
48630;BME280;34426;52.180;4.462;2023-03-19T03:47:34;101153.09;;;9.04;90.12
48630;BME280;34426;52.180;4.462;2023-03-19T03:50:01;101160.44;;;9.10;91.03
48630;BME280;34426;52.180;4.462;2023-03-19T03:52:30;101163.84;;;9.12;89.38
48630;BME280;34426;52.180;4.462;2023-03-19T03:54:58;101157.94;;;9.09;89.87
48630;BME280;34426;52.180;4.462;2023-03-19T03:57:25;101154.31;;;9.08;89.42
48630;BME280;34426;52.180;4.462;2023-03-19T03:59:53;101153.69;;;9.06;89.30
48630;BME280;34426;52.180;4.462;2023-03-19T04:02:20;101168.41;;;9.02;90.15
48630;BME280;34426;52.180;4.462;2023-03-19T04:04:48;101173.00;;;9.08;90.54
48630;BME280;34426;52.180;4.462;2023-03-19T04:07:15;101165.22;;;9.10;90.71
48630;BME280;34426;52.180;4.462;2023-03-19T04:09:45;101176.88;;;9.07;89.88
48630;BME280;34426;52.180;4.462;2023-03-19T04:12:13;101184.41;;;9.06;89.90
48630;BME280;34426;52.180;4.462;2023-03-19T04:14:40;101187.19;;;9.06;89.45
48630;BME280;34426;52.180;4.462;2023-03-19T04:17:08;101179.41;;;9.08;89.71
48630;BME280;34426;52.180;4.462;2023-03-19T04:19:35;101174.94;;;9.07;89.92
48630;BME280;34426;52.180;4.462;2023-03-19T04:22:02;101173.13;;;9.01;90.10
48630;BME280;34426;52.180;4.462;2023-03-19T04:24:29;101159.44;;;8.99;89.96
48630;BME280;34426;52.180;4.462;2023-03-19T04:26:59;101168.56;;;8.95;90.34
48630;BME280;34426;52.180;4.462;2023-03-19T04:29:26;101170.75;;;8.93;90.85
48630;BME280;34426;52.180;4.462;2023-03-19T04:31:54;101174.13;;;8.95;90.15
48630;BME280;34426;52.180;4.462;2023-03-19T04:34:21;101178.63;;;8.96;91.00
48630;BME280;34426;52.180;4.462;2023-03-19T04:36:48;101181.41;;;8.96;90.64
48630;BME280;34426;52.180;4.462;2023-03-19T04:39:16;101185.03;;;8.96;90.35
48630;BME280;34426;52.180;4.462;2023-03-19T04:41:44;101188.97;;;8.84;90.94
48630;BME280;34426;52.180;4.462;2023-03-19T04:44:13;101189.81;;;8.84;90.62
48630;BME280;34426;52.180;4.462;2023-03-19T04:46:41;101187.53;;;8.81;90.55
48630;BME280;34426;52.180;4.462;2023-03-19T04:49:10;101195.53;;;8.78;90.28
48630;BME280;34426;52.180;4.462;2023-03-19T04:51:37;101197.81;;;8.81;90.85
48630;BME280;34426;52.180;4.462;2023-03-19T04:54:04;101201.81;;;8.85;90.68
48630;BME280;34426;52.180;4.462;2023-03-19T04:56:32;101201.97;;;8.78;90.95
48630;BME280;34426;52.180;4.462;2023-03-19T04:58:59;101200.63;;;8.81;90.92
48630;BME280;34426;52.180;4.462;2023-03-19T05:01:28;101203.31;;;8.76;91.05
48630;BME280;34426;52.180;4.462;2023-03-19T05:03:55;101210.56;;;8.77;90.71
48630;BME280;34426;52.180;4.462;2023-03-19T05:06:23;101205.97;;;8.71;91.32
48630;BME280;34426;52.180;4.462;2023-03-19T05:08:50;101215.31;;;8.76;91.63
48630;BME280;34426;52.180;4.462;2023-03-19T05:11:17;101216.66;;;8.74;91.12
48630;BME280;34426;52.180;4.462;2023-03-19T05:13:45;101218.94;;;8.77;92.00
48630;BME280;34426;52.180;4.462;2023-03-19T05:16:12;101210.94;;;8.80;90.98
48630;BME280;34426;52.180;4.462;2023-03-19T05:18:41;101223.78;;;8.81;91.33
48630;BME280;34426;52.180;4.462;2023-03-19T05:21:10;101230.81;;;8.84;91.90
48630;BME280;34426;52.180;4.462;2023-03-19T05:23:38;101227.66;;;8.80;91.56
48630;BME280;34426;52.180;4.462;2023-03-19T05:26:06;101238.31;;;8.83;91.66
48630;BME280;34426;52.180;4.462;2023-03-19T05:28:34;101249.72;;;8.82;91.14
48630;BME280;34426;52.180;4.462;2023-03-19T05:31:02;101249.13;;;8.80;90.73
48630;BME280;34426;52.180;4.462;2023-03-19T05:33:30;101240.28;;;8.71;90.95
48630;BME280;34426;52.180;4.462;2023-03-19T05:35:59;101238.25;;;8.66;90.91
48630;BME280;34426;52.180;4.462;2023-03-19T05:38:27;101238.41;;;8.60;91.38
48630;BME280;34426;52.180;4.462;2023-03-19T05:40:54;101244.94;;;8.65;91.72
48630;BME280;34426;52.180;4.462;2023-03-19T05:43:22;101250.75;;;8.64;92.13
48630;BME280;34426;52.180;4.462;2023-03-19T05:45:50;101241.94;;;8.55;92.26
48630;BME280;34426;52.180;4.462;2023-03-19T05:48:18;101240.22;;;8.54;90.99
48630;BME280;34426;52.180;4.462;2023-03-19T05:50:45;101248.00;;;8.52;91.26
48630;BME280;34426;52.180;4.462;2023-03-19T05:53:14;101252.00;;;8.45;91.43
48630;BME280;34426;52.180;4.462;2023-03-19T05:55:43;101250.31;;;8.44;91.35
48630;BME280;34426;52.180;4.462;2023-03-19T05:58:10;101248.13;;;8.46;91.20
48630;BME280;34426;52.180;4.462;2023-03-19T06:00:38;101247.75;;;8.42;91.64
48630;BME280;34426;52.180;4.462;2023-03-19T06:03:05;101248.34;;;8.44;91.38
48630;BME280;34426;52.180;4.462;2023-03-19T06:05:33;101252.34;;;8.48;91.90
48630;BME280;34426;52.180;4.462;2023-03-19T06:08:00;101246.53;;;8.50;91.80
48630;BME280;34426;52.180;4.462;2023-03-19T06:10:29;101254.53;;;8.46;92.05
48630;BME280;34426;52.180;4.462;2023-03-19T06:12:57;101252.13;;;8.50;92.73
48630;BME280;34426;52.180;4.462;2023-03-19T06:15:24;101260.34;;;8.56;91.75
48630;BME280;34426;52.180;4.462;2023-03-19T06:17:51;101263.75;;;8.58;91.75
48630;BME280;34426;52.180;4.462;2023-03-19T06:20:22;101267.63;;;8.57;92.01
48630;BME280;34426;52.180;4.462;2023-03-19T06:22:49;101276.00;;;8.57;92.24
48630;BME280;34426;52.180;4.462;2023-03-19T06:25:16;101268.47;;;8.58;92.34
48630;BME280;34426;52.180;4.462;2023-03-19T06:27:46;101275.50;;;8.60;92.29
48630;BME280;34426;52.180;4.462;2023-03-19T06:30:14;101275.50;;;8.60;92.31
48630;BME280;34426;52.180;4.462;2023-03-19T06:32:41;101283.13;;;8.65;92.17
48630;BME280;34426;52.180;4.462;2023-03-19T06:35:09;101285.66;;;8.66;92.37
48630;BME280;34426;52.180;4.462;2023-03-19T06:37:37;101299.94;;;8.70;92.36
48630;BME280;34426;52.180;4.462;2023-03-19T06:40:05;101302.00;;;8.75;91.71
48630;BME280;34426;52.180;4.462;2023-03-19T06:42:32;101302.00;;;8.75;92.34
48630;BME280;34426;52.180;4.462;2023-03-19T06:45:01;101308.78;;;8.79;91.70
48630;BME280;34426;52.180;4.462;2023-03-19T06:47:28;101310.13;;;8.76;91.82
48630;BME280;34426;52.180;4.462;2023-03-19T06:49:56;101309.78;;;8.73;92.38
48630;BME280;34426;52.180;4.462;2023-03-19T06:52:23;101310.84;;;8.72;92.64
48630;BME280;34426;52.180;4.462;2023-03-19T06:54:51;101309.28;;;8.76;92.38
48630;BME280;34426;52.180;4.462;2023-03-19T06:57:18;101323.81;;;8.78;92.04
48630;BME280;34426;52.180;4.462;2023-03-19T06:59:45;101314.38;;;8.79;91.38
48630;BME280;34426;52.180;4.462;2023-03-19T07:02:15;101320.19;;;8.77;91.76
48630;BME280;34426;52.180;4.462;2023-03-19T07:04:43;101311.34;;;8.80;92.01
48630;BME280;34426;52.180;4.462;2023-03-19T07:07:10;101316.44;;;8.83;92.82
48630;BME280;34426;52.180;4.462;2023-03-19T07:09:37;101321.75;;;8.85;91.83
48630;BME280;34426;52.180;4.462;2023-03-19T07:12:08;101321.28;;;8.88;92.69
48630;BME280;34426;52.180;4.462;2023-03-19T07:14:36;101327.31;;;8.96;92.17
48630;BME280;34426;52.180;4.462;2023-03-19T07:17:03;101329.75;;;8.93;91.27
48630;BME280;34426;52.180;4.462;2023-03-19T07:19:32;101324.78;;;8.95;92.09
48630;BME280;34426;52.180;4.462;2023-03-19T07:21:59;101334.25;;;8.94;91.73
48630;BME280;34426;52.180;4.462;2023-03-19T07:24:27;101337.28;;;8.92;91.69
48630;BME280;34426;52.180;4.462;2023-03-19T07:26:54;101337.28;;;8.92;91.85
48630;BME280;34426;52.180;4.462;2023-03-19T07:29:22;101335.09;;;8.94;91.91
48630;BME280;34426;52.180;4.462;2023-03-19T07:31:49;101339.09;;;8.87;91.90
48630;BME280;34426;52.180;4.462;2023-03-19T07:34:17;101356.81;;;8.81;91.96
48630;BME280;34426;52.180;4.462;2023-03-19T07:36:46;101350.88;;;8.89;91.72
48630;BME280;34426;52.180;4.462;2023-03-19T07:39:13;101352.56;;;8.90;92.20
48630;BME280;34426;52.180;4.462;2023-03-19T07:41:44;101359.22;;;8.89;92.45
48630;BME280;34426;52.180;4.462;2023-03-19T07:44:11;101356.44;;;8.89;92.20
48630;BME280;34426;52.180;4.462;2023-03-19T07:46:38;101369.66;;;8.82;92.47
48630;BME280;34426;52.180;4.462;2023-03-19T07:49:06;101367.84;;;8.87;92.36
48630;BME280;34426;52.180;4.462;2023-03-19T07:51:33;101365.78;;;8.83;92.73
48630;BME280;34426;52.180;4.462;2023-03-19T07:54:03;101367.97;;;8.81;92.64
48630;BME280;34426;52.180;4.462;2023-03-19T07:56:33;101365.16;;;8.92;92.43
48630;BME280;34426;52.180;4.462;2023-03-19T07:59:07;101363.84;;;8.95;92.72
48630;BME280;34426;52.180;4.462;2023-03-19T08:01:34;101364.56;;;9.02;92.47
48630;BME280;34426;52.180;4.462;2023-03-19T08:04:02;101367.47;;;9.07;92.48
48630;BME280;34426;52.180;4.462;2023-03-19T08:06:30;101374.75;;;9.08;92.33
48630;BME280;34426;52.180;4.462;2023-03-19T08:08:57;101378.94;;;9.11;91.96
48630;BME280;34426;52.180;4.462;2023-03-19T08:11:26;101383.91;;;9.20;92.23
48630;BME280;34426;52.180;4.462;2023-03-19T08:13:54;101388.03;;;9.29;91.65
48630;BME280;34426;52.180;4.462;2023-03-19T08:16:21;101384.75;;;9.32;91.51
48630;BME280;34426;52.180;4.462;2023-03-19T08:18:49;101392.63;;;9.36;90.95
48630;BME280;34426;52.180;4.462;2023-03-19T08:21:17;101398.69;;;9.32;90.43
48630;BME280;34426;52.180;4.462;2023-03-19T08:23:44;101401.00;;;9.36;90.61
48630;BME280;34426;52.180;4.462;2023-03-19T08:26:12;101405.59;;;9.42;91.04
48630;BME280;34426;52.180;4.462;2023-03-19T08:28:41;101411.28;;;9.47;90.80
48630;BME280;34426;52.180;4.462;2023-03-19T08:31:09;101410.88;;;9.55;90.99
48630;BME280;34426;52.180;4.462;2023-03-19T08:33:38;101404.13;;;9.51;90.13
48630;BME280;34426;52.180;4.462;2023-03-19T08:36:08;101415.63;;;9.54;90.10
48630;BME280;34426;52.180;4.462;2023-03-19T08:38:36;101415.38;;;9.56;90.37
48630;BME280;34426;52.180;4.462;2023-03-19T08:41:04;101417.06;;;9.57;90.12
48630;BME280;34426;52.180;4.462;2023-03-19T08:43:32;101423.50;;;9.57;89.67
48630;BME280;34426;52.180;4.462;2023-03-19T08:46:02;101418.75;;;9.58;89.89
48630;BME280;34426;52.180;4.462;2023-03-19T08:48:30;101428.94;;;9.64;90.15
48630;BME280;34426;52.180;4.462;2023-03-19T08:50:58;101431.09;;;9.74;90.20
48630;BME280;34426;52.180;4.462;2023-03-19T08:53:26;101434.25;;;9.77;89.31
48630;BME280;34426;52.180;4.462;2023-03-19T08:55:54;101430.84;;;9.75;89.44
48630;BME280;34426;52.180;4.462;2023-03-19T08:58:22;101434.75;;;9.74;89.57
48630;BME280;34426;52.180;4.462;2023-03-19T09:00:49;101439.25;;;9.75;89.41
48630;BME280;34426;52.180;4.462;2023-03-19T09:03:18;101441.28;;;9.80;89.11
48630;BME280;34426;52.180;4.462;2023-03-19T09:05:46;101443.59;;;9.83;89.27
48630;BME280;34426;52.180;4.462;2023-03-19T09:08:14;101443.94;;;9.86;89.41
48630;BME280;34426;52.180;4.462;2023-03-19T09:10:41;101446.13;;;9.84;89.00
48630;BME280;34426;52.180;4.462;2023-03-19T09:13:08;101449.28;;;9.88;88.60
48630;BME280;34426;52.180;4.462;2023-03-19T09:15:36;101448.94;;;9.84;88.46
48630;BME280;34426;52.180;4.462;2023-03-19T09:18:03;101449.53;;;9.86;89.03
48630;BME280;34426;52.180;4.462;2023-03-19T09:20:32;101457.00;;;9.97;88.81
48630;BME280;34426;52.180;4.462;2023-03-19T09:23:00;101457.94;;;10.03;88.64
48630;BME280;34426;52.180;4.462;2023-03-19T09:25:27;101457.44;;;10.06;88.36
48630;BME280;34426;52.180;4.462;2023-03-19T09:27:55;101463.88;;;10.07;87.92
48630;BME280;34426;52.180;4.462;2023-03-19T09:30:28;101465.09;;;10.11;88.14
48630;BME280;34426;52.180;4.462;2023-03-19T09:32:56;101468.97;;;10.21;88.44
48630;BME280;34426;52.180;4.462;2023-03-19T09:35:29;101464.41;;;10.32;87.96
48630;BME280;34426;52.180;4.462;2023-03-19T09:38:02;101466.13;;;10.33;87.28
48630;BME280;34426;52.180;4.462;2023-03-19T09:40:28;101479.00;;;10.34;87.68
48630;BME280;34426;52.180;4.462;2023-03-19T09:43:09;101485.25;;;10.41;87.40
48630;BME280;34426;52.180;4.462;2023-03-19T09:45:43;101484.59;;;10.34;88.04
48630;BME280;34426;52.180;4.462;2023-03-19T09:48:15;101488.59;;;10.38;87.66
48630;BME280;34426;52.180;4.462;2023-03-19T09:50:46;101487.47;;;10.39;87.10
48630;BME280;34426;52.180;4.462;2023-03-19T09:53:23;101492.38;;;10.32;87.51
48630;BME280;34426;52.180;4.462;2023-03-19T09:55:58;101499.66;;;10.33;88.03
48630;BME280;34426;52.180;4.462;2023-03-19T09:58:29;101500.66;;;10.27;88.17
48630;BME280;34426;52.180;4.462;2023-03-19T10:00:58;101495.78;;;10.34;87.76
48630;BME280;34426;52.180;4.462;2023-03-19T10:03:45;101499.66;;;10.33;87.88
48630;BME280;34426;52.180;4.462;2023-03-19T10:06:26;101499.66;;;10.33;87.69
48630;BME280;34426;52.180;4.462;2023-03-19T10:09:04;101502.56;;;10.38;87.95
48630;BME280;34426;52.180;4.462;2023-03-19T10:11:44;101509.31;;;10.42;87.50
48630;BME280;34426;52.180;4.462;2023-03-19T10:14:28;101511.91;;;10.60;86.95
48630;BME280;34426;52.180;4.462;2023-03-19T10:17:11;101512.59;;;10.68;86.55
48630;BME280;34426;52.180;4.462;2023-03-19T10:19:45;101515.16;;;10.69;85.77
48630;BME280;34426;52.180;4.462;2023-03-19T10:22:24;101518.19;;;10.68;85.31
48630;BME280;34426;52.180;4.462;2023-03-19T10:24:57;101516.34;;;10.73;86.03
48630;BME280;34426;52.180;4.462;2023-03-19T10:27:35;101510.75;;;10.73;85.53
48630;BME280;34426;52.180;4.462;2023-03-19T10:30:12;101517.78;;;10.76;85.38
48630;BME280;34426;52.180;4.462;2023-03-19T10:32:44;101518.38;;;10.78;85.50
48630;BME280;34426;52.180;4.462;2023-03-19T10:35:28;101522.09;;;10.83;84.81
48630;BME280;34426;52.180;4.462;2023-03-19T10:38:15;101522.28;;;10.77;84.76
48630;BME280;34426;52.180;4.462;2023-03-19T10:40:58;101516.19;;;10.80;85.20
48630;BME280;34426;52.180;4.462;2023-03-19T10:43:29;101512.44;;;10.74;84.58
48630;BME280;34426;52.180;4.462;2023-03-19T10:45:58;101524.72;;;10.73;85.09
48630;BME280;34426;52.180;4.462;2023-03-19T10:48:29;101524.47;;;10.75;85.29
48630;BME280;34426;52.180;4.462;2023-03-19T10:50:57;101528.63;;;10.72;85.64
48630;BME280;34426;52.180;4.462;2023-03-19T10:53:31;101530.13;;;10.63;85.41
48630;BME280;34426;52.180;4.462;2023-03-19T10:56:04;101533.88;;;10.69;85.40
48630;BME280;34426;52.180;4.462;2023-03-19T10:58:34;101528.97;;;10.76;85.60
48630;BME280;34426;52.180;4.462;2023-03-19T11:01:04;101532.38;;;10.78;85.72
48630;BME280;34426;52.180;4.462;2023-03-19T11:03:32;101534.66;;;10.81;85.11
48630;BME280;34426;52.180;4.462;2023-03-19T11:06:21;101540.25;;;10.81;84.91
48630;BME280;34426;52.180;4.462;2023-03-19T11:08:54;101532.53;;;10.88;84.96
48630;BME280;34426;52.180;4.462;2023-03-19T11:11:33;101538.56;;;10.96;84.78
48630;BME280;34426;52.180;4.462;2023-03-19T11:14:07;101531.09;;;11.02;84.73
48630;BME280;34426;52.180;4.462;2023-03-19T11:16:51;101546.19;;;11.01;84.30
48630;BME280;34426;52.180;4.462;2023-03-19T11:19:23;101554.09;;;11.04;84.16
48630;BME280;34426;52.180;4.462;2023-03-19T11:22:06;101548.47;;;11.04;84.21
48630;BME280;34426;52.180;4.462;2023-03-19T11:24:37;101549.00;;;11.01;83.67
48630;BME280;34426;52.180;4.462;2023-03-19T11:27:07;101549.00;;;11.01;83.07
48630;BME280;34426;52.180;4.462;2023-03-19T11:29:36;101547.13;;;11.07;82.95
48630;BME280;34426;52.180;4.462;2023-03-19T11:32:19;101558.91;;;10.92;83.34
48630;BME280;34426;52.180;4.462;2023-03-19T11:34:53;101556.09;;;10.92;82.98
48630;BME280;34426;52.180;4.462;2023-03-19T11:37:30;101552.28;;;10.98;83.33
48630;BME280;34426;52.180;4.462;2023-03-19T11:40:08;101554.50;;;10.96;82.48
48630;BME280;34426;52.180;4.462;2023-03-19T11:43:05;101552.88;;;11.00;82.41
48630;BME280;34426;52.180;4.462;2023-03-19T11:45:44;101556.38;;;11.07;81.87
48630;BME280;34426;52.180;4.462;2023-03-19T11:48:25;101564.19;;;11.05;82.24
48630;BME280;34426;52.180;4.462;2023-03-19T11:50:58;101565.88;;;11.06;82.76
48630;BME280;34426;52.180;4.462;2023-03-19T11:53:29;101570.63;;;11.06;82.88
48630;BME280;34426;52.180;4.462;2023-03-19T11:56:04;101566.22;;;11.10;82.90
48630;BME280;34426;52.180;4.462;2023-03-19T11:58:55;101577.25;;;11.16;81.97
48630;BME280;34426;52.180;4.462;2023-03-19T12:01:35;101578.19;;;11.22;81.80
48630;BME280;34426;52.180;4.462;2023-03-19T12:04:31;101571.41;;;11.18;81.68
48630;BME280;34426;52.180;4.462;2023-03-19T12:07:07;101574.97;;;11.13;81.20
48630;BME280;34426;52.180;4.462;2023-03-19T12:09:44;101575.88;;;11.02;81.68
48630;BME280;34426;52.180;4.462;2023-03-19T12:12:24;101579.28;;;11.04;81.46
48630;BME280;34426;52.180;4.462;2023-03-19T12:15:06;101580.97;;;11.05;81.63
48630;BME280;34426;52.180;4.462;2023-03-19T12:17:46;101584.53;;;11.00;82.49
48630;BME280;34426;52.180;4.462;2023-03-19T12:20:27;101588.09;;;10.96;83.49
48630;BME280;34426;52.180;4.462;2023-03-19T12:23:04;101591.16;;;11.11;83.61
48630;BME280;34426;52.180;4.462;2023-03-19T12:25:51;101582.59;;;11.18;83.53
48630;BME280;34426;52.180;4.462;2023-03-19T12:28:25;101594.78;;;11.28;82.84
48630;BME280;34426;52.180;4.462;2023-03-19T12:34:05;101593.69;;;11.46;81.76
48630;BME280;34426;52.180;4.462;2023-03-19T12:36:44;101593.00;;;11.56;81.26
48630;BME280;34426;52.180;4.462;2023-03-19T12:39:16;101593.44;;;11.64;80.96
48630;BME280;34426;52.180;4.462;2023-03-19T12:41:45;101595.91;;;11.61;81.24
48630;BME280;34426;52.180;4.462;2023-03-19T12:44:20;101603.03;;;11.52;81.38
48630;BME280;34426;52.180;4.462;2023-03-19T12:46:54;101617.72;;;11.42;81.65
48630;BME280;34426;52.180;4.462;2023-03-19T12:49:25;101612.19;;;11.30;81.91
48630;BME280;34426;52.180;4.462;2023-03-19T12:51:58;101612.78;;;11.32;82.33
48630;BME280;34426;52.180;4.462;2023-03-19T12:54:28;101606.25;;;11.27;81.98
48630;BME280;34426;52.180;4.462;2023-03-19T12:57:00;101608.50;;;11.25;82.59
48630;BME280;34426;52.180;4.462;2023-03-19T12:59:33;101616.81;;;11.20;82.68
48630;BME280;34426;52.180;4.462;2023-03-19T13:02:11;101619.00;;;11.18;82.83
48630;BME280;34426;52.180;4.462;2023-03-19T13:04:50;101619.34;;;11.21;82.72
48630;BME280;34426;52.180;4.462;2023-03-19T13:07:23;101627.31;;;11.46;82.00
48630;BME280;34426;52.180;4.462;2023-03-19T13:09:57;101627.56;;;11.78;81.28
48630;BME280;34426;52.180;4.462;2023-03-19T13:12:28;101625.72;;;12.06;80.47
48630;BME280;34426;52.180;4.462;2023-03-19T13:15:01;101619.47;;;12.42;79.65